Terminal Aerodrome Forecast
Issued by NWS Blacksburg, VA

Home | Current Version | Previous Version | Text Only | Print | Product List | Glossary On
Versions: 1 2 3 4 5 6 7 8 9 10 11 12 13 14 15 16 17 18 19 20 21 22 23 24 25 26 27 28 29 30 31 32
000
FTUS41 KRNK 060520
TAFROA
TAF
KROA 060520Z 0606/0706 12006KT P6SM -RA OVC050
     FM060800 12007KT 4SM -RA BR SCT009 OVC015
     FM061300 11008G16KT 1 1/2SM -RA BR OVC004
     FM062200 VRB04KT 3SM -DZ BR OVC007=

USA.gov is the U.S. government's official web portal to all federal, state and local government web resources and services.